Back to Top

Language: 

My Weather Underground Personal Weather Station Historical Data with Graphs...

Delerius Weather Station Historical Data
 
Daily Summary for August 16, 2018 Units:  English    Metric   Both
« Previous Day
Next Day »
Daily Weekly Monthly Yearly Custom
  Current: High: Low: Average:
Temperature: 56.5 °F 65.3 °F 56.5 °F 61.7 °F
Dew Point: 53 °F 61.5 °F 53 °F 58.8 °F
Humidity: 88 % 92 % 86 % 90 %
Wind Speed: 8 mph 14 mph 2 mph 7 mph
Wind Gust: 11 mph 26 mph - -
Wind:West - - SW
Pressure: 29.79 in 29.82 in 29.75 in -
Precipitation: 0.06 in      
Historical Graphs
 
 
Tabular Data for August 16, 2018
Time Temperature Dew Point Pressure Wind Wind Speed Wind Gust Humidity Rainfall Rate (Hourly) solar Conditions
00:04 65.3 °F 61 °F 29.82 in SW 9 mph 15 mph 86 % 0 in 0.00 W/m2
00:09 65.1 °F 60.8 °F 29.81 in SW 8 mph 14 mph 86 % 0 in 0.00 W/m2
00:14 65.1 °F 61.2 °F 29.81 in SW 7 mph 12 mph 87 % 0 in 0.00 W/m2
00:19 65.1 °F 61.2 °F 29.81 in WSW 9 mph 14 mph 87 % 0 in 0.00 W/m2
00:24 64.9 °F 61 °F 29.81 in SW 7 mph 11 mph 87 % 0 in 0.00 W/m2
00:29 64.8 °F 61.1 °F 29.81 in SW 7 mph 10 mph 88 % 0 in 0.00 W/m2
00:34 64.6 °F 61.3 °F 29.81 in SSW 7 mph 10 mph 89 % 0 in 0.00 W/m2
00:39 64.4 °F 61.1 °F 29.80 in SW 6 mph 8 mph 89 % 0 in 0.00 W/m2
00:44 64.2 °F 61.2 °F 29.80 in SW 7 mph 12 mph 90 % 0 in 0.00 W/m2
00:49 64 °F 61 °F 29.80 in SW 7 mph 11 mph 90 % 0 in 0.00 W/m2
00:54 64 °F 61.4 °F 29.81 in SW 7 mph 11 mph 91 % 0 in 0.00 W/m2
00:59 63.9 °F 61.2 °F 29.81 in SW 7 mph 10 mph 91 % 0 in 0.00 W/m2
01:04 64 °F 61.4 °F 29.81 in SSW 7 mph 12 mph 91 % 0 in 0.00 W/m2
01:09 63.9 °F 61.2 °F 29.81 in SW 5 mph 8 mph 91 % 0.01 in 0.00 W/m2
01:14 63.9 °F 61.5 °F 29.81 in WSW 7 mph 11 mph 92 % 0.01 in 0.00 W/m2
01:19 63.7 °F 61.3 °F 29.80 in WSW 6 mph 8 mph 92 % 0.01 in 0.00 W/m2
01:24 63.7 °F 61.3 °F 29.80 in SW 5 mph 7 mph 92 % 0.02 in 0.00 W/m2
01:29 63.7 °F 61.3 °F 29.80 in SW 5 mph 9 mph 92 % 0.02 in 0.00 W/m2
01:34 63.7 °F 61.3 °F 29.80 in SSW 6 mph 10 mph 92 % 0.02 in 0.00 W/m2
01:39 63.5 °F 61.1 °F 29.80 in SW 5 mph 8 mph 92 % 0.02 in 0.00 W/m2
01:44 63.5 °F 61.1 °F 29.80 in SW 8 mph 13 mph 92 % 0.02 in 0.00 W/m2
01:49 63.5 °F 61.1 °F 29.80 in SW 8 mph 11 mph 92 % 0.02 in 0.00 W/m2
01:54 63.5 °F 61.1 °F 29.80 in SSW 6 mph 11 mph 92 % 0.02 in 0.00 W/m2
01:59 63.5 °F 61.1 °F 29.80 in SW 7 mph 12 mph 92 % 0.02 in 0.00 W/m2
02:04 63.5 °F 60.8 °F 29.79 in SW 7 mph 11 mph 91 % 0.01 in 0.00 W/m2
02:09 63.7 °F 61 °F 29.79 in SW 6 mph 10 mph 91 % 0.01 in 0.00 W/m2
02:14 63.7 °F 61 °F 29.79 in SW 8 mph 10 mph 91 % 0.01 in 0.00 W/m2
02:19 63.7 °F 60.7 °F 29.79 in SW 8 mph 11 mph 90 % 0.01 in 0.00 W/m2
02:24 63.5 °F 60.5 °F 29.79 in SW 8 mph 12 mph 90 % 0 in 0.00 W/m2
02:29 63.5 °F 60.5 °F 29.79 in SW 9 mph 13 mph 90 % 0 in 0.00 W/m2
02:34 63.5 °F 60.5 °F 29.78 in SW 7 mph 9 mph 90 % 0 in 0.00 W/m2
02:39 63.3 °F 60.3 °F 29.79 in SW 7 mph 9 mph 90 % 0 in 0.00 W/m2
02:44 63.3 °F 60.3 °F 29.79 in SW 7 mph 10 mph 90 % 0 in 0.00 W/m2
02:49 63.1 °F 60.2 °F 29.78 in SW 9 mph 13 mph 90 % 0 in 0.00 W/m2
02:54 63.1 °F 60.5 °F 29.78 in SW 7 mph 9 mph 91 % 0 in 0.00 W/m2
02:59 63.1 °F 60.5 °F 29.78 in SW 7 mph 10 mph 91 % 0 in 0.00 W/m2
03:04 63 °F 60.3 °F 29.78 in SW 7 mph 10 mph 91 % 0 in 0.00 W/m2
03:09 63.1 °F 60.2 °F 29.78 in SW 6 mph 10 mph 90 % 0 in 0.00 W/m2
03:14 63 °F 60 °F 29.78 in SW 6 mph 9 mph 90 % 0 in 0.00 W/m2
03:19 63 °F 60 °F 29.78 in SW 7 mph 12 mph 90 % 0 in 0.00 W/m2
03:24 63 °F 60 °F 29.77 in SW 6 mph 8 mph 90 % 0 in 0.00 W/m2
03:29 63 °F 60 °F 29.77 in SW 7 mph 10 mph 90 % 0 in 0.00 W/m2
03:34 63.1 °F 60.2 °F 29.77 in SW 6 mph 8 mph 90 % 0 in 0.00 W/m2
03:39 63 °F 60 °F 29.77 in SW 5 mph 8 mph 90 % 0 in 0.00 W/m2
03:44 63 °F 60 °F 29.77 in WSW 4 mph 8 mph 90 % 0 in 0.00 W/m2
03:49 62.8 °F 59.8 °F 29.77 in SW 5 mph 7 mph 90 % 0 in 0.00 W/m2
03:54 62.8 °F 59.8 °F 29.77 in SW 5 mph 7 mph 90 % 0.01 in 0.00 W/m2
03:59 62.8 °F 59.8 °F 29.77 in WSW 4 mph 7 mph 90 % 0.01 in 0.00 W/m2
04:04 62.6 °F 59.9 °F 29.77 in SW 3 mph 5 mph 91 % 0.01 in 0.00 W/m2
04:09 62.4 °F 59.8 °F 29.77 in SW 6 mph 9 mph 91 % 0.01 in 0.00 W/m2
04:14 62.4 °F 59.8 °F 29.76 in SW 2 mph 5 mph 91 % 0.01 in 0.00 W/m2
04:19 62.4 °F 59.8 °F 29.76 in SSW 3 mph 4 mph 91 % 0.01 in 0.00 W/m2
04:24 62.2 °F 59.9 °F 29.76 in SSW 4 mph 6 mph 92 % 0.01 in 0.00 W/m2
04:29 62.2 °F 59.9 °F 29.76 in SSW 2 mph 5 mph 92 % 0.01 in 0.00 W/m2
04:34 62.1 °F 59.7 °F 29.76 in SSW 3 mph 6 mph 92 % 0.01 in 0.00 W/m2
04:39 62.1 °F 59.7 °F 29.76 in SW 5 mph 6 mph 92 % 0.01 in 0.00 W/m2
04:44 61.9 °F 59.5 °F 29.76 in SW 7 mph 9 mph 92 % 0.02 in 0.00 W/m2
04:49 61.7 °F 59.4 °F 29.76 in SW 7 mph 11 mph 92 % 0.02 in 0.00 W/m2
04:54 61.7 °F 59.4 °F 29.76 in SW 6 mph 8 mph 92 % 0.01 in 0.00 W/m2
04:59 61.5 °F 59.2 °F 29.76 in WSW 6 mph 12 mph 92 % 0.01 in 0.00 W/m2
05:04 61.3 °F 59 °F 29.76 in WSW 6 mph 9 mph 92 % 0.01 in 0.00 W/m2
05:09 61.2 °F 58.8 °F 29.76 in WSW 8 mph 12 mph 92 % 0.01 in 0.00 W/m2
05:14 61 °F 58.3 °F 29.76 in WSW 5 mph 6 mph 91 % 0.01 in 0.00 W/m2
05:19 60.8 °F 58.2 °F 29.76 in SW 4 mph 7 mph 91 % 0.02 in 0.00 W/m2
05:24 61 °F 58.6 °F 29.75 in SW 6 mph 10 mph 92 % 0.02 in 0.00 W/m2
05:29 60.6 °F 58 °F 29.76 in SW 8 mph 13 mph 91 % 0.02 in 0.00 W/m2
05:34 60.4 °F 57.5 °F 29.75 in SW 8 mph 14 mph 90 % 0.02 in 0.00 W/m2
05:39 60.3 °F 57.3 °F 29.75 in WSW 8 mph 12 mph 90 % 0.02 in 0.00 W/m2
05:44 59.9 °F 56.6 °F 29.75 in SW 10 mph 13 mph 89 % 0.02 in 0.00 W/m2
05:49 59.5 °F 56.3 °F 29.76 in SW 8 mph 13 mph 89 % 0.02 in 0.00 W/m2
05:54 59.4 °F 56.1 °F 29.75 in WSW 6 mph 9 mph 89 % 0.02 in 0.00 W/m2
05:59 59 °F 55.8 °F 29.75 in SW 9 mph 15 mph 89 % 0.02 in 0.00 W/m2
06:04 58.8 °F 55.6 °F 29.75 in SW 8 mph 12 mph 89 % 0.02 in 0.00 W/m2
06:09 58.6 °F 55.4 °F 29.75 in SW 7 mph 10 mph 89 % 0.02 in 0.00 W/m2
06:14 58.5 °F 55.2 °F 29.76 in SW 7 mph 9 mph 89 % 0.02 in 0.00 W/m2
06:19 58.5 °F 55.5 °F 29.76 in WSW 6 mph 9 mph 90 % 0.02 in 0.00 W/m2
06:24 58.5 °F 55.5 °F 29.76 in WSW 7 mph 11 mph 90 % 0.02 in 0.00 W/m2
06:29 58.5 °F 55.5 °F 29.76 in West 5 mph 8 mph 90 % 0.02 in 9.00 W/m2
06:34 58.5 °F 55.5 °F 29.75 in West 8 mph 15 mph 90 % 0.02 in 9.00 W/m2
06:39 58.5 °F 55.8 °F 29.76 in West 9 mph 18 mph 91 % 0.01 in 9.00 W/m2
06:44 58.6 °F 55.7 °F 29.77 in WSW 14 mph 22 mph 90 % 0.01 in 9.00 W/m2
06:49 58.8 °F 55.9 °F 29.75 in WSW 8 mph 15 mph 90 % 0.01 in 21.00 W/m2
06:54 58.8 °F 55.9 °F 29.76 in West 12 mph 19 mph 90 % 0.01 in 28.00 W/m2
06:59 58.8 °F 55.9 °F 29.76 in West 12 mph 19 mph 90 % 0.01 in 32.00 W/m2
07:04 58.8 °F 55.9 °F 29.77 in West 10 mph 15 mph 90 % 0 in 37.00 W/m2
07:09 58.6 °F 55.7 °F 29.77 in WNW 14 mph 26 mph 90 % 0 in 30.00 W/m2
07:14 57.9 °F 54.7 °F 29.77 in WNW 11 mph 16 mph 89 % 0 in 30.00 W/m2
07:19 57.6 °F 54.3 °F 29.78 in West 11 mph 19 mph 89 % 0 in 26.00 W/m2
07:24 57 °F 53.8 °F 29.77 in West 10 mph 16 mph 89 % 0 in 21.00 W/m2
07:29 56.8 °F 53.3 °F 29.78 in West 10 mph 16 mph 88 % 0 in 23.00 W/m2
07:34 56.7 °F 53.1 °F 29.77 in West 9 mph 12 mph 88 % 0 in 25.00 W/m2
07:39 56.5 °F 53 °F 29.78 in West 8 mph 12 mph 88 % 0 in 25.00 W/m2
07:45 56.5 °F 53 °F 29.78 in West 7 mph 12 mph 88 % 0 in 28.00 W/m2
07:49 56.5 °F 53 °F 29.78 in West 6 mph 9 mph 88 % 0 in 37.00 W/m2
07:54 56.5 °F 53 °F 29.79 in West 8 mph 11 mph 88 % 0 in 28.00 W/m2
Delerius-Weather
Compliments of Weather Underground - 1.25 mb

Data updates at regular intervals.